Piperton, Tennessee
Current Conditions -  °F | °C
As of 5:15 AM on Sunday 23 Nov 2014 (Local Time) from KOLV Reporting Station
Overcast Overcast  
Wind Chill: 57°   Ceiling: 1200
Heat Index: 57°   Visibility: 6mi
Dew Point: 57°   Wind: 14mph
Humidity: 100%   Direction: 140°SE
Pressure: 29.79"   Gusts: 20mph
Location:  35.0418°N, 89.6647°W
Report Text: KOLV 231115Z AUTO 14012G17KT 6SM OVC012 14/14 A2979 RMK A01 P000
Loading
Personal Weather Stations






























Interactive Weather Map New forecast layout! Learn more

10-Day Weather Forecast

Advertisements
Track Severe Weather on mobile